createdAt,value
2017-12-01T00:01:47.840Z,99815.09
2017-12-01T00:04:18.103Z,99816.77
2017-12-01T00:06:48.761Z,99836.99
2017-12-01T00:09:18.021Z,99845.18
2017-12-01T00:11:47.246Z,99846.77
2017-12-01T00:14:16.342Z,99847.40
2017-12-01T00:16:45.350Z,99847.99
2017-12-01T00:19:18.355Z,99859.92
2017-12-01T00:21:50.873Z,99863.55
2017-12-01T00:24:20.149Z,99858.59
2017-12-01T00:26:49.235Z,99864.78
2017-12-01T00:29:18.350Z,99864.90
2017-12-01T00:31:47.440Z,99869.77
2017-12-01T00:34:18.453Z,99871.72
2017-12-01T00:36:47.474Z,99871.16
2017-12-01T00:39:16.527Z,99872.44
2017-12-01T00:41:48.328Z,99884.50
2017-12-01T00:46:53.034Z,99878.31
2017-12-01T00:49:22.068Z,99875.96
2017-12-01T00:51:54.236Z,99875.66
2017-12-01T00:54:24.026Z,99880.67
2017-12-01T00:56:53.193Z,99881.53
2017-12-01T00:59:23.915Z,99873.27
2017-12-01T01:01:52.975Z,99865.02
2017-12-01T01:04:22.219Z,99868.53
2017-12-01T01:06:53.352Z,99861.59
2017-12-01T01:09:22.449Z,99854.33
2017-12-01T01:11:51.458Z,99861.09
2017-12-01T01:14:21.284Z,99871.29
2017-12-01T01:16:50.644Z,99866.36
2017-12-01T01:19:20.788Z,99867.95
2017-12-01T01:21:51.745Z,99857.98
2017-12-01T01:24:21.708Z,99868.37
2017-12-01T01:26:51.109Z,99862.73
2017-12-01T01:29:20.361Z,99862.78
2017-12-01T01:31:50.467Z,99868.73
2017-12-01T01:34:21.363Z,99865.09
2017-12-01T01:36:50.514Z,99876.52
2017-12-01T01:39:19.693Z,99879.24
2017-12-01T01:41:51.423Z,99867.67
2017-12-01T01:44:20.317Z,99869.69
2017-12-01T01:46:49.603Z,99880.13
2017-12-01T01:49:20.646Z,99873.16
2017-12-01T01:51:51.606Z,99875.92
2017-12-01T01:54:21.656Z,99875.95
2017-12-01T01:56:51.005Z,99876.28
2017-12-01T01:59:21.113Z,99878.18
2017-12-01T02:01:50.987Z,99877.73
2017-12-01T02:04:20.069Z,99886.91
2017-12-01T02:06:54.366Z,99880.11
2017-12-01T02:09:23.551Z,99883.90
2017-12-01T02:11:52.650Z,99884.59
2017-12-01T02:14:22.753Z,99888.70
2017-12-01T02:16:51.841Z,99877.88
2017-12-01T02:19:21.001Z,99879.86
2017-12-01T02:21:50.981Z,99878.80
2017-12-01T02:24:20.443Z,99888.05
2017-12-01T02:26:50.356Z,99883.48
2017-12-01T02:29:19.517Z,99883.34
2017-12-01T02:31:48.635Z,99888.17
2017-12-01T02:34:19.589Z,99886.44
2017-12-01T02:36:49.634Z,99881.28
2017-12-01T02:39:18.781Z,99878.64
2017-12-01T02:41:49.734Z,99876.71
2017-12-01T02:44:19.891Z,99882.67
2017-12-01T02:46:49.804Z,99885.60
2017-12-01T02:49:19.725Z,99876.31
2017-12-01T02:51:49.806Z,99882.39
2017-12-01T02:54:18.992Z,99876.23
2017-12-01T02:56:49.007Z,99863.73
2017-12-01T03:01:53.268Z,99864.97
2017-12-01T03:04:22.388Z,99863.37
2017-12-01T03:06:52.705Z,99862.06
2017-12-01T03:09:22.659Z,99864.23
2017-12-01T03:11:52.953Z,99871.62
2017-12-01T03:14:23.249Z,99877.86
2017-12-01T03:16:53.235Z,99889.55
2017-12-01T03:19:24.435Z,99888.27
2017-12-01T03:21:53.646Z,99884.62
2017-12-01T03:24:24.366Z,99876.80
2017-12-01T03:26:53.567Z,99879.49
2017-12-01T03:29:23.524Z,99887.08
2017-12-01T03:31:53.540Z,99880.62
2017-12-01T03:34:24.540Z,99876.67
2017-12-01T03:36:54.258Z,99875.76
2017-12-01T03:39:24.358Z,99869.34
2017-12-01T03:41:56.412Z,99879.37
2017-12-01T03:44:25.518Z,99877.13
2017-12-01T03:46:56.000Z,99878.80
2017-12-01T03:49:26.607Z,99887.30
2017-12-01T03:51:55.588Z,99888.42
2017-12-01T03:54:24.841Z,99892.80
2017-12-01T03:56:55.012Z,99900.44
2017-12-01T03:59:25.269Z,99895.44
2017-12-01T04:02:01.802Z,99896.14
2017-12-01T04:04:31.104Z,99902.41
2017-12-01T04:07:00.414Z,99910.16
2017-12-01T04:09:33.132Z,99904.25
2017-12-01T04:12:02.334Z,99917.63
2017-12-01T04:14:31.479Z,99926.22
2017-12-01T04:17:00.618Z,99925.23
2017-12-01T04:19:31.738Z,99927.64
2017-12-01T04:22:00.900Z,99929.59
2017-12-01T04:24:30.269Z,99930.63
2017-12-01T04:27:00.455Z,99926.80
2017-12-01T04:29:29.655Z,99932.69
2017-12-01T04:31:59.013Z,99932.77
2017-12-01T04:34:28.142Z,99931.73
2017-12-01T04:37:01.089Z,99933.02
2017-12-01T04:39:30.294Z,99935.03
2017-12-01T04:42:02.037Z,99937.64
2017-12-01T04:44:32.677Z,99934.03
2017-12-01T04:47:03.951Z,99927.92
2017-12-01T04:49:33.987Z,99925.24
2017-12-01T04:54:39.216Z,99927.88
2017-12-01T04:57:08.403Z,99925.61
2017-12-01T04:59:37.570Z,99919.25
2017-12-01T05:02:07.209Z,99916.47
2017-12-01T05:04:36.549Z,99910.02
2017-12-01T05:07:05.944Z,99926.08
2017-12-01T05:09:35.149Z,99923.52
2017-12-01T05:12:05.183Z,99941.25
2017-12-01T05:14:36.292Z,99935.84
2017-12-01T05:17:06.326Z,99945.40
2017-12-01T05:19:35.626Z,99948.72
2017-12-01T05:22:04.763Z,99953.43
2017-12-01T05:24:34.838Z,99953.81
2017-12-01T05:27:08.959Z,99967.73
2017-12-01T05:29:38.384Z,99968.15
2017-12-01T05:32:07.588Z,99975.55
2017-12-01T05:34:38.945Z,99968.53
2017-12-01T05:37:10.382Z,99976.57
2017-12-01T05:39:40.638Z,99975.44
2017-12-01T05:42:10.988Z,99972.27
2017-12-01T05:44:40.586Z,99969.28
2017-12-01T05:47:10.153Z,99962.95
2017-12-01T05:49:39.624Z,99955.02
2017-12-01T05:52:08.692Z,99960.20
2017-12-01T05:54:40.715Z,99962.32
2017-12-01T05:57:12.822Z,99973.84
2017-12-01T05:59:43.311Z,99971.49
2017-12-01T06:02:12.713Z,99969.25
2017-12-01T06:07:21.064Z,99963.37
2017-12-01T06:09:50.342Z,99965.58
2017-12-01T06:12:19.506Z,99963.11
2017-12-01T06:14:48.904Z,99962.30
2017-12-01T06:17:18.092Z,99966.92
2017-12-01T06:19:47.173Z,99962.33
2017-12-01T06:22:16.431Z,99963.61
2017-12-01T06:24:45.735Z,99971.41
2017-12-01T06:27:16.172Z,99964.13
2017-12-01T06:29:49.759Z,99954.72
2017-12-01T06:32:19.937Z,99949.94
2017-12-01T06:34:49.131Z,99959.28
2017-12-01T06:39:54.026Z,99960.92
2017-12-01T06:42:24.402Z,99960.92
2017-12-01T06:44:56.270Z,99968.48
2017-12-01T06:47:25.422Z,99971.53
2017-12-01T06:49:54.885Z,99980.19
2017-12-01T06:52:24.367Z,99986.40
2017-12-01T06:54:53.566Z,99976.81
2017-12-01T06:57:23.611Z,99994.64
2017-12-01T06:59:54.286Z,99995.38
2017-12-01T07:02:23.592Z,99991.62
2017-12-01T07:04:53.597Z,99990.15
2017-12-01T07:07:22.998Z,99992.22
2017-12-01T07:09:53.075Z,99990.84
2017-12-01T07:12:23.036Z,99986.78
2017-12-01T07:14:54.005Z,99981.43
2017-12-01T07:17:23.044Z,99987.19
2017-12-01T07:19:52.000Z,99992.58
2017-12-01T07:22:21.874Z,100002.61
2017-12-01T07:24:51.692Z,99998.67
2017-12-01T07:27:20.833Z,99992.38
2017-12-01T07:29:51.624Z,99988.59
2017-12-01T07:32:20.718Z,99990.14
2017-12-01T07:34:50.056Z,99994.03
2017-12-01T07:37:19.101Z,99992.00
2017-12-01T07:39:49.746Z,99988.36
2017-12-01T07:42:18.947Z,99989.23
2017-12-01T07:45:03.915Z,99999.91
2017-12-01T07:47:32.984Z,100002.48
2017-12-01T07:50:02.108Z,99996.82
2017-12-01T07:52:33.817Z,100004.31
2017-12-01T07:55:04.146Z,100001.42
2017-12-01T07:57:33.439Z,100011.27
2017-12-01T08:00:05.946Z,100007.38
2017-12-01T08:02:35.059Z,100006.22
2017-12-01T08:05:05.200Z,100009.02
2017-12-01T08:07:34.990Z,100015.77
2017-12-01T08:10:05.108Z,100021.20
2017-12-01T08:12:35.070Z,100007.64
2017-12-01T08:15:04.710Z,99998.72
2017-12-01T08:17:34.598Z,100007.08
2017-12-01T08:20:04.709Z,100001.84
2017-12-01T08:22:47.388Z,99996.73
2017-12-01T08:25:35.532Z,99991.08
2017-12-01T08:28:04.741Z,100004.74
2017-12-01T08:30:33.898Z,100009.47
2017-12-01T08:33:05.069Z,100001.88
2017-12-01T08:38:09.304Z,100011.84
2017-12-01T08:40:38.541Z,100003.88
2017-12-01T08:43:08.931Z,99992.52
2017-12-01T08:45:39.736Z,99988.02
2017-12-01T08:48:09.400Z,99991.38
2017-12-01T08:50:38.795Z,99987.52
2017-12-01T08:53:08.131Z,99996.23
2017-12-01T08:55:37.447Z,100000.94
2017-12-01T08:58:09.641Z,100009.39
2017-12-01T09:00:39.153Z,100015.05
2017-12-01T09:03:08.203Z,100018.72
2017-12-01T09:05:37.739Z,100016.70
2017-12-01T09:08:06.999Z,100021.09
2017-12-01T09:10:36.110Z,100021.52
2017-12-01T09:15:40.692Z,100014.95
2017-12-01T09:18:10.064Z,100014.28
2017-12-01T09:20:42.999Z,100003.09
2017-12-01T09:23:12.059Z,99997.77
2017-12-01T09:25:41.225Z,100012.80
2017-12-01T09:28:12.582Z,100004.61
2017-12-01T09:30:41.725Z,100014.84
2017-12-01T09:33:10.834Z,100008.86
2017-12-01T09:38:14.235Z,100007.70
2017-12-01T09:40:44.078Z,100012.22
2017-12-01T09:43:13.798Z,100015.52
2017-12-01T09:45:42.967Z,100021.83
2017-12-01T09:48:13.820Z,100023.55
2017-12-01T09:50:44.080Z,100015.02
2017-12-01T09:53:13.150Z,100015.45
2017-12-01T09:55:42.465Z,100015.59
2017-12-01T09:58:11.710Z,100008.34
2017-12-01T10:00:41.864Z,99998.48
2017-12-01T10:03:10.866Z,99996.75
2017-12-01T10:05:39.976Z,99998.31
2017-12-01T10:08:08.916Z,100002.87
2017-12-01T10:10:38.366Z,99995.78
2017-12-01T10:13:08.746Z,100005.51
2017-12-01T10:15:37.942Z,100006.28
2017-12-01T10:18:07.247Z,99995.33
2017-12-01T10:20:37.926Z,99993.74
2017-12-01T10:23:08.028Z,100000.59
2017-12-01T10:25:38.064Z,99992.28
2017-12-01T10:28:07.211Z,99993.12
2017-12-01T10:30:37.021Z,99996.97
2017-12-01T10:33:07.215Z,99989.79
2017-12-01T10:35:36.241Z,99994.45
2017-12-01T10:38:05.320Z,99993.00
2017-12-01T10:40:34.405Z,99990.05
2017-12-01T10:43:03.369Z,99986.03
2017-12-01T10:45:34.102Z,99989.82
2017-12-01T10:48:04.895Z,99988.11
2017-12-01T10:50:33.989Z,99978.94
2017-12-01T10:53:03.005Z,99980.42
2017-12-01T10:55:32.976Z,99981.81
2017-12-01T10:58:03.725Z,99988.18
2017-12-01T11:00:34.469Z,99988.47
2017-12-01T11:03:03.405Z,99987.07
2017-12-01T11:05:32.324Z,99990.06
2017-12-01T11:08:05.344Z,99990.41
2017-12-01T11:10:34.322Z,99991.66
2017-12-01T11:13:03.228Z,99985.53
2017-12-01T11:15:32.413Z,99986.27
2017-12-01T11:18:01.473Z,99980.28
2017-12-01T11:20:30.518Z,99982.52
2017-12-01T11:25:33.976Z,99973.25
2017-12-01T11:28:02.799Z,99982.72
2017-12-01T11:30:32.618Z,99984.98
2017-12-01T11:33:01.441Z,99988.61
2017-12-01T11:35:30.255Z,99988.05
2017-12-01T11:38:00.178Z,99991.00
2017-12-01T11:40:29.017Z,99993.64
2017-12-01T11:42:57.846Z,99996.30
2017-12-01T11:50:40.020Z,99985.23
2017-12-01T11:53:09.084Z,99998.00
2017-12-01T11:55:37.990Z,99991.63
2017-12-01T11:58:08.936Z,100001.72
2017-12-01T12:00:58.734Z,99990.66
2017-12-01T12:03:27.745Z,99999.31
2017-12-01T12:05:56.721Z,100001.59
2017-12-01T12:08:25.609Z,99994.10
2017-12-01T12:10:55.514Z,100007.45
2017-12-01T12:13:24.628Z,100001.27
2017-12-01T12:15:53.629Z,100006.51
2017-12-01T12:18:22.757Z,100002.52
2017-12-01T12:20:51.667Z,100011.64
2017-12-01T12:23:20.619Z,100007.84
2017-12-01T12:25:51.218Z,100012.00
2017-12-01T12:28:20.213Z,100005.89
2017-12-01T12:30:49.196Z,100011.80
2017-12-01T12:33:18.212Z,100023.05
2017-12-01T12:35:47.215Z,100020.95
2017-12-01T12:38:16.199Z,100023.61
2017-12-01T12:40:45.343Z,100027.58
2017-12-01T12:43:14.398Z,100021.17
2017-12-01T12:45:45.170Z,100025.56
2017-12-01T12:48:14.234Z,100026.28
2017-12-01T12:50:43.155Z,100027.58
2017-12-01T12:53:12.148Z,100031.86
2017-12-01T12:55:41.177Z,100036.66
2017-12-01T12:58:10.219Z,100035.75
2017-12-01T13:00:39.343Z,100027.75
2017-12-01T13:03:08.612Z,100030.88
2017-12-01T13:05:37.706Z,100030.78
2017-12-01T13:08:06.753Z,100017.69
2017-12-01T13:13:10.247Z,100035.98
2017-12-01T13:15:39.260Z,100035.61
2017-12-01T13:18:08.296Z,100031.86
2017-12-01T13:20:37.301Z,100029.77
2017-12-01T13:23:06.284Z,100052.36
2017-12-01T13:25:35.411Z,100055.88
2017-12-01T13:28:04.470Z,100050.23
2017-12-01T13:30:33.422Z,100061.69
2017-12-01T13:35:36.395Z,100066.05
2017-12-01T13:38:05.409Z,100066.94
2017-12-01T13:40:37.744Z,100064.72
2017-12-01T13:43:06.723Z,100065.14
2017-12-01T13:45:35.738Z,100071.89
2017-12-01T13:48:04.899Z,100069.69
2017-12-01T13:50:33.974Z,100064.88
2017-12-01T13:53:02.949Z,100074.13
2017-12-01T13:55:32.798Z,100073.30
2017-12-01T13:58:01.803Z,100069.42
2017-12-01T14:00:30.847Z,100065.36
2017-12-01T14:02:59.992Z,100063.23
2017-12-01T14:05:28.997Z,100062.98
2017-12-01T14:07:57.892Z,100058.50
2017-12-01T14:10:28.391Z,100059.28
2017-12-01T14:12:57.210Z,100056.69
2017-12-01T14:15:26.066Z,100057.55
2017-12-01T14:17:56.608Z,100063.64
2017-12-01T14:20:25.507Z,100068.20
2017-12-01T14:22:54.391Z,100070.81
2017-12-01T14:25:24.207Z,100074.94
2017-12-01T14:27:53.066Z,100074.47
2017-12-01T14:30:21.880Z,100074.70
2017-12-01T14:32:50.734Z,100074.09
2017-12-01T14:35:19.557Z,100084.28
2017-12-01T14:37:48.411Z,100090.80
2017-12-01T14:40:17.331Z,100090.92
2017-12-01T14:42:46.294Z,100097.30
2017-12-01T14:45:15.135Z,100107.31
2017-12-01T14:47:44.031Z,100106.47
2017-12-01T14:50:12.867Z,100107.92
2017-12-01T14:52:41.713Z,100105.70
2017-12-01T14:55:11.522Z,100106.81
2017-12-01T14:57:40.350Z,100117.47
2017-12-01T15:00:09.248Z,100117.76
2017-12-01T15:02:39.084Z,100118.03
2017-12-01T15:05:08.096Z,100114.89
2017-12-01T15:07:37.357Z,100119.04
2017-12-01T15:10:07.255Z,100121.69
2017-12-01T15:12:36.254Z,100133.13
2017-12-01T15:15:05.342Z,100130.45
2017-12-01T15:17:34.364Z,100132.63
2017-12-01T15:20:07.779Z,100136.91
2017-12-01T15:22:38.008Z,100137.67
2017-12-01T15:25:06.852Z,100148.42
2017-12-01T15:27:35.706Z,100143.77
2017-12-01T15:30:06.338Z,100134.73
2017-12-01T15:32:36.293Z,100132.09
2017-12-01T15:35:06.417Z,100131.94
2017-12-01T15:37:36.400Z,100143.84
2017-12-01T15:40:05.520Z,100143.42
2017-12-01T15:42:34.627Z,100147.12
2017-12-01T15:45:06.140Z,100140.12
2017-12-01T15:47:35.632Z,100140.48
2017-12-01T15:50:05.750Z,100142.97
2017-12-01T15:52:36.956Z,100136.97
2017-12-01T15:55:06.889Z,100137.88
2017-12-01T15:57:36.054Z,100142.47
2017-12-01T16:00:06.763Z,100135.50
2017-12-01T16:02:35.990Z,100148.94
2017-12-01T16:05:06.073Z,100145.25
2017-12-01T16:07:36.120Z,100150.61
2017-12-01T16:10:06.380Z,100155.37
2017-12-01T16:12:35.920Z,100162.73
2017-12-01T16:15:05.464Z,100157.87
2017-12-01T16:17:34.872Z,100156.25
2017-12-01T16:20:04.040Z,100161.91
2017-12-01T16:22:35.046Z,100160.67
2017-12-01T16:25:04.194Z,100165.58
2017-12-01T16:27:33.459Z,100159.28
2017-12-01T16:30:02.750Z,100160.61
2017-12-01T16:32:32.656Z,100161.45
2017-12-01T16:35:01.852Z,100157.97
2017-12-01T16:37:32.026Z,100155.87
2017-12-01T16:40:01.401Z,100164.42
2017-12-01T16:42:31.687Z,100163.17
2017-12-01T16:45:01.973Z,100167.47
2017-12-01T16:47:31.489Z,100161.93
2017-12-01T16:50:01.079Z,100167.47
2017-12-01T16:52:32.389Z,100169.50
2017-12-01T16:55:01.625Z,100165.70
2017-12-01T16:57:31.671Z,100166.08
2017-12-01T17:00:01.157Z,100164.36
2017-12-01T17:02:30.600Z,100155.75
2017-12-01T17:05:00.496Z,100163.33
2017-12-01T17:10:05.027Z,100175.75
2017-12-01T17:12:34.494Z,100173.77
2017-12-01T17:15:05.808Z,100174.00
2017-12-01T17:17:35.944Z,100184.56
2017-12-01T17:20:05.351Z,100184.63
2017-12-01T17:22:34.914Z,100187.02
2017-12-01T17:25:05.064Z,100195.39
2017-12-01T17:27:34.488Z,100198.75
2017-12-01T17:30:05.122Z,100212.51
2017-12-01T17:32:35.342Z,100210.08
2017-12-01T17:37:40.560Z,100222.91
2017-12-01T17:40:10.634Z,100216.91
2017-12-01T17:42:40.422Z,100212.10
2017-12-01T17:45:11.326Z,100208.86
2017-12-01T17:47:40.821Z,100201.82
2017-12-01T17:50:10.325Z,100201.04
2017-12-01T17:52:40.178Z,100196.05
2017-12-01T17:55:11.473Z,100193.58
2017-12-01T17:57:40.794Z,100202.69
2017-12-01T18:00:10.051Z,100203.65
2017-12-01T18:02:41.256Z,100213.83
2017-12-01T18:05:10.688Z,100202.93
2017-12-01T18:07:39.917Z,100203.91
2017-12-01T18:10:12.275Z,100205.17
2017-12-01T18:12:43.125Z,100198.45
2017-12-01T18:15:12.286Z,100194.20
2017-12-01T18:17:42.619Z,100202.72
2017-12-01T18:20:11.917Z,100211.78
2017-12-01T18:22:41.038Z,100212.58
2017-12-01T18:25:13.607Z,100214.65
2017-12-01T18:27:42.887Z,100229.88
2017-12-01T18:30:12.190Z,100222.61
2017-12-01T18:32:41.289Z,100224.73
2017-12-01T18:35:10.599Z,100234.89
2017-12-01T18:37:40.019Z,100237.80
2017-12-01T18:40:09.228Z,100242.50
2017-12-01T18:42:38.444Z,100247.25
2017-12-01T18:45:07.498Z,100251.05
2017-12-01T18:47:38.447Z,100246.28
2017-12-01T18:50:07.881Z,100246.84
2017-12-01T18:52:37.491Z,100252.47
2017-12-01T18:55:06.587Z,100248.13
2017-12-01T18:57:36.096Z,100253.30
2017-12-01T19:00:05.115Z,100252.52
2017-12-01T19:02:34.318Z,100256.84
2017-12-01T19:05:05.204Z,100258.13
2017-12-01T19:07:36.230Z,100250.56
2017-12-01T19:10:05.861Z,100247.09
2017-12-01T19:12:35.220Z,100244.17
2017-12-01T19:15:05.368Z,100245.94
2017-12-01T19:17:34.973Z,100250.16
2017-12-01T19:20:04.051Z,100251.86
2017-12-01T19:22:34.264Z,100251.52
2017-12-01T19:25:03.798Z,100242.05
2017-12-01T19:27:32.981Z,100237.81
2017-12-01T19:30:03.963Z,100239.60
2017-12-01T19:32:34.194Z,100246.73
2017-12-01T19:35:06.054Z,100242.97
2017-12-01T19:37:35.302Z,100243.05
2017-12-01T19:40:04.549Z,100243.08
2017-12-01T19:42:34.544Z,100253.75
2017-12-01T19:45:03.872Z,100254.13
2017-12-01T19:47:33.157Z,100258.48
2017-12-01T19:50:05.298Z,100258.98
2017-12-01T19:52:34.643Z,100261.03
2017-12-01T19:55:05.183Z,100247.41
2017-12-01T19:57:34.469Z,100246.33
2017-12-01T20:00:03.549Z,100237.06
2017-12-01T20:02:34.602Z,100239.58
2017-12-01T20:05:04.861Z,100233.49
2017-12-01T20:07:33.924Z,100233.86
2017-12-01T20:10:04.125Z,100227.09
2017-12-01T20:12:33.779Z,100233.86
2017-12-01T20:15:03.919Z,100238.86
2017-12-01T20:17:34.126Z,100240.53
2017-12-01T20:20:03.558Z,100233.70
2017-12-01T20:22:32.909Z,100228.55
2017-12-01T20:25:03.241Z,100236.31
2017-12-01T20:27:32.923Z,100230.42
2017-12-01T20:30:03.449Z,100228.75
2017-12-01T20:32:32.727Z,100233.47
2017-12-01T20:35:02.119Z,100224.33
2017-12-01T20:37:31.424Z,100226.48
2017-12-01T20:40:00.374Z,100214.85
2017-12-01T20:42:32.327Z,100216.95
2017-12-01T20:45:02.070Z,100211.84
2017-12-01T20:47:32.291Z,100204.98
2017-12-01T20:50:01.706Z,100202.36
2017-12-01T20:52:31.029Z,100197.59
2017-12-01T20:55:01.235Z,100203.84
2017-12-01T20:57:30.782Z,100195.73
2017-12-01T21:00:00.108Z,100194.55
2017-12-01T21:02:29.817Z,100201.38
2017-12-01T21:04:59.250Z,100200.03
2017-12-01T21:07:28.627Z,100197.78
2017-12-01T21:09:58.414Z,100200.80
2017-12-01T21:12:28.606Z,100203.72
2017-12-01T21:14:58.144Z,100194.70
2017-12-01T21:17:29.120Z,100193.48
2017-12-01T21:19:58.560Z,100197.18
2017-12-01T21:22:28.001Z,100195.86
2017-12-01T21:24:58.329Z,100189.91
2017-12-01T21:27:28.146Z,100190.37
2017-12-01T21:29:57.661Z,100195.14
2017-12-01T21:32:33.442Z,100207.31
2017-12-01T21:35:03.003Z,100207.63
2017-12-01T21:37:32.775Z,100208.14
2017-12-01T21:40:02.541Z,100211.57
2017-12-01T21:42:33.213Z,100219.74
2017-12-01T21:45:04.336Z,100229.52
2017-12-01T21:47:34.031Z,100241.81
2017-12-01T21:50:05.015Z,100235.02
2017-12-01T21:55:09.730Z,100228.55
2017-12-01T21:57:39.082Z,100223.62
2017-12-01T22:00:08.321Z,100229.61
2017-12-01T22:02:37.636Z,100233.14
2017-12-01T22:05:06.713Z,100222.75
2017-12-01T22:07:36.008Z,100221.07
2017-12-01T22:10:05.587Z,100220.61
2017-12-01T22:12:35.001Z,100217.66
2017-12-01T22:15:04.226Z,100214.27
2017-12-01T22:20:10.100Z,100215.99
2017-12-01T22:22:39.303Z,100213.44
2017-12-01T22:25:08.314Z,100214.23
2017-12-01T22:27:40.469Z,100211.20
2017-12-01T22:30:09.848Z,100213.70
2017-12-01T22:32:40.188Z,100210.26
2017-12-01T22:35:10.491Z,100205.52
2017-12-01T22:37:39.796Z,100202.63
2017-12-01T22:40:09.122Z,100206.37
2017-12-01T22:45:14.516Z,100206.82
2017-12-01T22:47:44.284Z,100206.40
2017-12-01T22:50:14.520Z,100214.03
2017-12-01T22:52:43.675Z,100205.70
2017-12-01T22:55:12.806Z,100201.50
2017-12-01T22:57:42.671Z,100199.45
2017-12-01T23:00:12.415Z,100194.84
2017-12-01T23:02:41.580Z,100195.39
2017-12-01T23:05:11.587Z,100190.33
2017-12-01T23:07:40.591Z,100192.64
2017-12-01T23:10:10.408Z,100184.17
2017-12-01T23:12:39.550Z,100182.03
2017-12-01T23:15:08.745Z,100180.25
2017-12-01T23:17:38.056Z,100176.53
2017-12-01T23:20:08.074Z,100179.95
2017-12-01T23:22:37.095Z,100178.91
2017-12-01T23:25:06.216Z,100174.38
2017-12-01T23:27:36.332Z,100181.59
2017-12-01T23:30:06.648Z,100181.11
2017-12-01T23:32:36.455Z,100180.59
2017-12-01T23:35:08.086Z,100181.93
2017-12-01T23:37:37.048Z,100179.72
2017-12-01T23:40:07.148Z,100182.30
2017-12-01T23:42:37.293Z,100185.13
2017-12-01T23:45:06.403Z,100183.52
2017-12-01T23:47:36.556Z,100184.38
2017-12-01T23:50:07.710Z,100189.59
2017-12-01T23:52:37.599Z,100179.77
2017-12-01T23:55:07.930Z,100174.66
2017-12-01T23:57:38.306Z,100171.72
